Time;durP1;ratioP1;P1;durP2;ratioP2;P2;SDS_P1;SDS_P2;PMS_P1;PMS_P2;Temp;Humidity;BMP_temperature;BMP_pressure;BME280_temperature;BME280_humidity;BME280_pressure;Samples;Min_cycle;Max_cycle;Signal;HPM_P1;HPM_P2
2021/03/18 00:01:35;;;;;;;5.00;2.90;;;14.10;58.30;;;;;;5056977;28;20511;-62
2021/03/18 00:04:04;;;;;;;3.73;2.87;;;14.10;58.40;;;;;;5056823;28;20470;-61
2021/03/18 00:06:31;;;;;;;3.23;2.87;;;14.10;58.40;;;;;;5056558;28;20477;-62
2021/03/18 00:08:58;;;;;;;3.40;2.93;;;14.00;58.30;;;;;;5056896;28;20442;-61
2021/03/18 00:11:25;;;;;;;3.43;3.10;;;14.10;58.60;;;;;;5061347;28;20442;-61
2021/03/18 00:13:52;;;;;;;3.13;2.80;;;14.00;58.30;;;;;;5076407;28;20465;-62
2021/03/18 00:16:18;;;;;;;3.23;2.87;;;14.00;58.50;;;;;;5074534;28;20434;-61
2021/03/18 00:18:47;;;;;;;3.43;3.10;;;14.00;58.50;;;;;;5077398;28;20452;-62
2021/03/18 00:21:15;;;;;;;3.00;2.60;;;14.00;58.40;;;;;;5072830;28;20438;-62
2021/03/18 00:23:41;;;;;;;2.33;2.20;;;14.00;58.50;;;;;;5074843;28;20543;-61
2021/03/18 00:26:08;;;;;;;3.33;3.03;;;14.00;58.40;;;;;;5074788;28;20437;-62
2021/03/18 00:28:35;;;;;;;5.60;2.90;;;14.00;58.40;;;;;;5075225;28;20430;-61
2021/03/18 00:31:04;;;;;;;4.10;2.60;;;13.90;58.40;;;;;;5075156;28;20453;-61
2021/03/18 00:33:31;;;;;;;4.73;2.60;;;13.90;59.10;;;;;;5072805;28;20449;-61
2021/03/18 00:35:58;;;;;;;3.33;2.83;;;13.90;58.40;;;;;;5073421;28;20525;-61
2021/03/18 00:38:26;;;;;;;4.60;3.10;;;14.00;58.50;;;;;;5073933;28;20434;-61
2021/03/18 00:40:55;;;;;;;3.70;2.80;;;13.90;58.40;;;;;;5074703;28;20465;-62
2021/03/18 00:43:22;;;;;;;2.97;2.77;;;13.90;58.40;;;;;;5077722;28;20503;-61
2021/03/18 00:45:49;;;;;;;2.80;2.60;;;13.90;58.50;;;;;;5074500;28;20519;-61
2021/03/18 00:48:17;;;;;;;5.00;2.93;;;13.90;58.40;;;;;;5074773;28;20445;-61
2021/03/18 00:50:45;;;;;;;4.67;2.60;;;13.90;58.50;;;;;;5071882;28;20430;-61
2021/03/18 00:53:14;;;;;;;3.93;2.90;;;13.90;58.50;;;;;;5072035;28;20517;-61
2021/03/18 00:55:41;;;;;;;4.70;2.47;;;13.90;58.60;;;;;;5074411;28;20540;-61
2021/03/18 00:58:08;;;;;;;3.03;2.73;;;13.80;58.50;;;;;;5066311;28;20473;-61
2021/03/18 01:00:37;;;;;;;3.13;2.67;;;13.90;58.60;;;;;;5074585;28;20427;-61
2021/03/18 01:03:04;;;;;;;3.87;2.63;;;13.90;58.50;;;;;;5076644;28;20477;-61
2021/03/18 01:05:33;;;;;;;3.80;2.77;;;13.80;58.50;;;;;;5074525;28;20440;-61
2021/03/18 01:08:00;;;;;;;3.90;2.47;;;13.80;58.60;;;;;;5074677;28;20522;-61
2021/03/18 01:10:28;;;;;;;3.60;2.80;;;13.80;58.70;;;;;;5063643;28;20561;-61
2021/03/18 01:12:56;;;;;;;2.70;2.50;;;13.80;58.60;;;;;;5074937;28;20534;-61
2021/03/18 01:15:25;;;;;;;3.10;2.53;;;13.80;58.70;;;;;;5062470;28;20434;-61
2021/03/18 01:17:53;;;;;;;2.70;2.50;;;13.80;58.70;;;;;;5055194;28;20437;-61
2021/03/18 01:20:20;;;;;;;3.03;2.80;;;13.80;58.60;;;;;;5087859;28;20461;-61
2021/03/18 01:22:47;;;;;;;3.03;2.30;;;13.90;58.60;;;;;;5095422;28;20469;-61
2021/03/18 01:25:14;;;;;;;5.90;2.77;;;13.90;58.50;;;;;;5094832;28;20475;-61
2021/03/18 01:27:41;;;;;;;4.00;2.73;;;13.90;58.50;;;;;;5095128;28;20468;-61
2021/03/18 01:30:11;;;;;;;4.80;2.50;;;13.90;58.50;;;;;;5095422;28;20429;-61
2021/03/18 01:32:38;;;;;;;2.43;2.27;;;13.90;58.40;;;;;;5095533;28;20477;-61
2021/03/18 01:35:08;;;;;;;2.63;2.43;;;13.90;58.40;;;;;;5095192;28;20467;-61
2021/03/18 01:37:35;;;;;;;2.73;2.50;;;13.90;58.40;;;;;;5082486;28;20480;-61
2021/03/18 01:40:04;;;;;;;5.43;3.27;;;13.90;58.40;;;;;;5074613;28;20437;-61
2021/03/18 01:42:31;;;;;;;3.47;3.13;;;13.90;58.40;;;;;;5074924;28;20552;-61
2021/03/18 01:44:58;;;;;;;2.90;2.70;;;13.90;58.40;;;;;;5074725;28;20544;-61
2021/03/18 01:47:26;;;;;;;2.90;2.60;;;13.90;58.10;;;;;;5095634;28;20444;-61
2021/03/18 01:49:53;;;;;;;7.87;2.90;;;13.80;58.30;;;;;;5094799;28;20457;-61
2021/03/18 01:52:19;;;;;;;3.00;2.50;;;13.90;58.40;;;;;;5095106;28;20507;-61
2021/03/18 01:54:46;;;;;;;3.80;2.67;;;13.90;58.30;;;;;;5078089;28;20553;-61
2021/03/18 01:57:13;;;;;;;3.20;3.00;;;13.80;58.20;;;;;;5054297;28;20439;-61
2021/03/18 01:59:40;;;;;;;2.53;2.33;;;13.90;58.40;;;;;;5054932;28;20481;-61
2021/03/18 02:02:07;;;;;;;4.30;3.20;;;13.80;58.20;;;;;;5054685;28;20476;-61
2021/03/18 02:04:35;;;;;;;3.10;2.77;;;13.80;58.30;;;;;;5054206;28;20516;-61
2021/03/18 02:07:02;;;;;;;3.13;2.83;;;13.80;58.30;;;;;;5054409;28;20518;-61
2021/03/18 02:09:28;;;;;;;3.43;2.90;;;13.80;58.30;;;;;;5054409;28;20527;-61
2021/03/18 02:11:55;;;;;;;3.33;3.03;;;13.80;58.30;;;;;;5061539;28;20470;-61
2021/03/18 02:14:22;;;;;;;2.90;2.70;;;13.80;58.30;;;;;;5094415;28;20432;-61
2021/03/18 02:16:50;;;;;;;5.43;3.10;;;13.80;58.20;;;;;;5094586;28;20429;-61
2021/03/18 02:19:31;;;;;;;2.77;2.53;;;13.80;58.40;;;;;;5089663;28;20542;-61
2021/03/18 02:22:25;;;;;;;3.40;2.63;;;13.80;58.40;;;;;;5094428;28;20529;-61
2021/03/18 02:24:57;;;;;;;3.30;2.70;;;13.80;58.30;;;;;;5093884;28;20486;-61
2021/03/18 02:27:53;;;;;;;2.37;2.23;;;13.80;58.20;;;;;;5094245;28;20433;-61
2021/03/18 02:30:58;;;;;;;2.60;2.40;;;13.80;58.30;;;;;;5093953;28;20468;-61
2021/03/18 02:33:59;;;;;;;2.73;2.50;;;13.80;58.20;;;;;;5093179;28;20440;-61
2021/03/18 02:36:30;;;;;;;5.33;3.10;;;13.80;58.30;;;;;;5093933;28;20437;-61
2021/03/18 02:38:59;;;;;;;2.70;2.50;;;13.80;58.20;;;;;;5079048;28;20449;-62
2021/03/18 02:41:29;;;;;;;3.80;2.63;;;13.80;58.10;;;;;;5053760;28;20439;-61
2021/03/18 02:43:58;;;;;;;4.00;2.60;;;13.80;58.20;;;;;;5053957;28;20528;-61
2021/03/18 02:46:25;;;;;;;4.03;2.47;;;13.80;58.10;;;;;;5053325;28;20525;-61
2021/03/18 02:48:53;;;;;;;3.90;3.17;;;13.80;58.20;;;;;;5054454;28;20485;-61
2021/03/18 02:51:20;;;;;;;3.10;2.80;;;13.70;58.20;;;;;;5053775;28;20434;-61
2021/03/18 02:53:48;;;;;;;2.60;2.40;;;13.80;58.30;;;;;;5053847;28;20462;-61
2021/03/18 02:56:16;;;;;;;3.83;2.60;;;13.70;58.20;;;;;;5053350;28;20482;-61
2021/03/18 02:58:44;;;;;;;3.13;2.83;;;13.80;58.20;;;;;;5053618;28;20519;-61
2021/03/18 03:01:10;;;;;;;4.87;2.77;;;13.70;58.20;;;;;;5052994;28;20512;-61
2021/03/18 03:03:41;;;;;;;2.93;2.63;;;13.80;58.10;;;;;;5053922;28;20474;-61
2021/03/18 03:06:09;;;;;;;2.43;2.23;;;13.70;58.20;;;;;;5053463;28;20485;-60
2021/03/18 03:08:36;;;;;;;2.50;2.30;;;13.70;58.20;;;;;;5053574;28;20458;-61
2021/03/18 03:11:04;;;;;;;3.00;2.60;;;13.70;58.10;;;;;;5053571;28;20443;-61
2021/03/18 03:13:32;;;;;;;3.63;2.57;;;13.70;58.20;;;;;;5054851;28;20470;-61
2021/03/18 03:16:00;;;;;;;4.77;2.40;;;13.80;58.20;;;;;;5093013;28;20428;-61
2021/03/18 03:18:27;;;;;;;2.90;2.60;;;13.70;58.20;;;;;;5093663;28;20490;-61
2021/03/18 03:20:55;;;;;;;2.33;2.10;;;13.70;58.20;;;;;;5093377;28;20452;-61
2021/03/18 03:23:22;;;;;;;3.30;2.40;;;13.70;58.20;;;;;;5093074;28;20473;-61
2021/03/18 03:25:49;;;;;;;3.40;2.20;;;13.70;58.10;;;;;;5092535;28;20476;-62
2021/03/18 03:28:17;;;;;;;2.80;2.50;;;13.80;58.00;;;;;;5093663;28;20476;-61
2021/03/18 03:30:43;;;;;;;3.33;3.00;;;13.80;58.00;;;;;;5093607;28;20575;-61
2021/03/18 03:33:10;;;;;;;5.27;2.57;;;13.80;58.00;;;;;;5093246;28;20520;-61
2021/03/18 03:35:38;;;;;;;3.20;2.87;;;13.70;58.10;;;;;;5088111;28;20465;-61
2021/03/18 03:38:05;;;;;;;2.90;2.63;;;13.70;58.10;;;;;;5093043;28;20499;-61
2021/03/18 03:40:33;;;;;;;2.47;2.27;;;13.70;58.20;;;;;;5083809;28;20454;-61
2021/03/18 03:43:00;;;;;;;3.03;2.80;;;13.60;58.20;;;;;;5053376;28;20482;-61
2021/03/18 03:45:28;;;;;;;2.60;2.40;;;13.70;58.10;;;;;;5052647;28;20439;-61
2021/03/18 03:47:55;;;;;;;3.17;2.87;;;13.60;58.20;;;;;;5053402;28;20537;-61
2021/03/18 03:50:25;;;;;;;3.23;2.60;;;13.70;58.20;;;;;;5053044;28;20545;-61
2021/03/18 03:52:54;;;;;;;2.70;2.50;;;13.60;58.20;;;;;;5053398;28;20525;-61
2021/03/18 03:55:27;;;;;;;7.53;2.90;;;13.60;58.10;;;;;;5052915;28;20474;-61
2021/03/18 03:57:55;;;;;;;5.50;2.43;;;13.70;58.00;;;;;;5054099;28;20466;-61
2021/03/18 04:00:22;;;;;;;2.70;2.40;;;13.70;57.90;;;;;;5053222;28;20426;-61
2021/03/18 04:02:58;;;;;;;2.10;2.00;;;13.70;58.00;;;;;;5052893;28;20470;-61
2021/03/18 04:05:27;;;;;;;2.83;2.57;;;13.70;57.90;;;;;;5052269;28;20516;-61
2021/03/18 04:07:59;;;;;;;6.10;2.70;;;13.70;58.00;;;;;;5053677;28;20473;-61
2021/03/18 04:10:26;;;;;;;3.97;2.37;;;13.70;58.00;;;;;;5053025;28;20537;-61
2021/03/18 04:12:53;;;;;;;2.53;2.33;;;13.70;58.10;;;;;;5056174;28;20466;-61
2021/03/18 04:15:20;;;;;;;2.80;2.47;;;13.60;58.10;;;;;;5056187;28;20471;-61
2021/03/18 04:17:48;;;;;;;3.73;2.70;;;13.60;58.10;;;;;;5056652;28;20475;-61
2021/03/18 04:20:17;;;;;;;2.87;2.67;;;13.60;58.10;;;;;;5056271;28;20529;-61
2021/03/18 04:22:46;;;;;;;4.80;3.40;;;13.60;58.00;;;;;;5056313;28;20514;-61
2021/03/18 04:25:14;;;;;;;2.73;2.53;;;13.60;57.90;;;;;;5056487;28;20445;-61
2021/03/18 04:27:41;;;;;;;4.10;2.63;;;13.70;57.90;;;;;;5056400;28;20438;-61
2021/03/18 04:30:09;;;;;;;3.30;2.70;;;13.60;58.10;;;;;;5055970;28;20438;-61
2021/03/18 04:32:37;;;;;;;5.13;2.73;;;13.60;58.00;;;;;;5056002;28;20469;-61
2021/03/18 04:35:05;;;;;;;6.13;2.90;;;13.60;58.00;;;;;;5051473;28;20542;-61
2021/03/18 04:37:33;;;;;;;2.73;2.57;;;13.60;58.10;;;;;;5056201;28;20477;-61
2021/03/18 04:40:00;;;;;;;3.17;2.80;;;13.50;58.10;;;;;;5056294;28;20474;-61
2021/03/18 04:42:27;;;;;;;2.80;2.60;;;13.60;58.10;;;;;;5057235;28;20489;-61
2021/03/18 04:44:54;;;;;;;3.03;2.73;;;13.60;58.00;;;;;;5055370;28;20524;-61
2021/03/18 04:47:21;;;;;;;3.90;2.90;;;13.60;58.00;;;;;;5056207;28;20470;-61
2021/03/18 04:49:48;;;;;;;3.83;2.80;;;13.60;58.00;;;;;;5055912;28;20550;-61
2021/03/18 04:52:15;;;;;;;2.90;2.60;;;13.60;58.00;;;;;;5056494;28;20470;-61
2021/03/18 04:54:43;;;;;;;3.27;2.97;;;13.60;58.00;;;;;;5055755;28;20438;-61
2021/03/18 04:57:10;;;;;;;3.03;2.83;;;13.60;57.80;;;;;;5056077;28;20481;-61
2021/03/18 04:59:36;;;;;;;3.10;2.60;;;13.60;57.90;;;;;;5055335;28;20466;-61
2021/03/18 05:02:04;;;;;;;2.33;2.23;;;13.50;58.00;;;;;;5076010;28;20445;-61
2021/03/18 05:04:32;;;;;;;3.90;3.07;;;13.50;58.00;;;;;;5075107;28;20481;-61
2021/03/18 05:06:58;;;;;;;4.30;3.20;;;13.50;58.00;;;;;;5075873;28;20448;-61
2021/03/18 05:09:25;;;;;;;3.60;2.70;;;13.50;58.10;;;;;;5067922;28;20482;-61
2021/03/18 05:11:53;;;;;;;4.67;2.60;;;13.50;58.00;;;;;;5055871;28;20525;-61
2021/03/18 05:14:20;;;;;;;3.03;2.70;;;13.50;58.00;;;;;;5054842;28;20435;-61
2021/03/18 05:16:48;;;;;;;3.87;2.70;;;13.50;58.00;;;;;;5055731;28;20542;-61
2021/03/18 05:19:15;;;;;;;3.90;2.70;;;13.50;58.00;;;;;;5055921;28;20493;-61
2021/03/18 05:21:43;;;;;;;3.27;2.67;;;13.50;57.90;;;;;;5055253;28;20434;-61
2021/03/18 05:24:10;;;;;;;3.00;2.70;;;13.50;58.00;;;;;;5054171;28;20470;-61
2021/03/18 05:26:37;;;;;;;4.27;3.17;;;13.50;57.90;;;;;;5055475;28;20511;-61
2021/03/18 05:29:06;;;;;;;3.30;3.00;;;13.50;57.90;;;;;;5055399;28;20447;-61
2021/03/18 05:31:32;;;;;;;4.00;3.07;;;13.50;58.00;;;;;;5055160;28;20438;-61
2021/03/18 05:34:00;;;;;;;3.70;3.20;;;13.60;58.00;;;;;;5055208;28;20469;-61
2021/03/18 05:36:26;;;;;;;3.83;3.10;;;13.50;58.00;;;;;;5055392;28;20531;-61
2021/03/18 05:38:54;;;;;;;3.20;2.90;;;13.60;57.90;;;;;;5054738;28;20549;-61
2021/03/18 05:41:21;;;;;;;4.43;3.23;;;13.60;57.90;;;;;;5054710;28;20439;-61
2021/03/18 05:43:48;;;;;;;4.00;2.80;;;13.50;57.90;;;;;;5054985;28;20478;-61
2021/03/18 05:46:16;;;;;;;3.20;2.70;;;13.60;57.80;;;;;;5054788;28;20442;-61
2021/03/18 05:48:44;;;;;;;3.10;2.80;;;13.60;57.90;;;;;;5054744;28;20541;-61
2021/03/18 05:51:12;;;;;;;2.70;2.50;;;13.60;57.80;;;;;;5050026;28;20561;-61
2021/03/18 05:53:39;;;;;;;3.00;2.70;;;13.60;57.70;;;;;;5055070;28;20477;-61
2021/03/18 05:56:06;;;;;;;3.60;3.30;;;13.60;57.70;;;;;;5053998;28;20492;-61
2021/03/18 05:58:33;;;;;;;3.70;2.90;;;13.60;57.80;;;;;;5054825;28;20446;-61
2021/03/18 06:01:00;;;;;;;2.87;2.67;;;13.60;57.90;;;;;;5054421;28;20438;-61
2021/03/18 06:03:28;;;;;;;5.80;3.57;;;13.50;57.90;;;;;;5085400;28;20480;-61
2021/03/18 06:06:00;;;;;;;2.83;2.63;;;13.60;57.80;;;;;;5094256;28;20464;-61
2021/03/18 06:08:27;;;;;;;3.30;2.63;;;13.60;57.80;;;;;;5094554;28;20480;-61
2021/03/18 06:10:55;;;;;;;4.63;3.00;;;13.60;57.70;;;;;;5094172;28;20510;-61
2021/03/18 06:13:22;;;;;;;5.20;2.87;;;13.70;57.60;;;;;;5094584;28;20428;-61
2021/03/18 06:15:48;;;;;;;5.00;3.07;;;13.70;57.70;;;;;;5094163;28;20516;-61
2021/03/18 06:18:15;;;;;;;4.83;3.10;;;13.70;57.50;;;;;;5094666;28;20436;-61
2021/03/18 06:20:49;;;;;;;3.47;2.63;;;13.70;57.60;;;;;;5094526;28;20449;-61
2021/03/18 06:23:16;;;;;;;3.70;2.80;;;13.70;57.50;;;;;;5094889;28;20527;-61
2021/03/18 06:25:43;;;;;;;3.80;2.90;;;13.70;57.40;;;;;;5093840;28;20524;-61
2021/03/18 06:28:14;;;;;;;3.63;2.40;;;13.80;57.40;;;;;;5094310;28;20472;-58
2021/03/18 06:30:42;;;;;;;3.43;2.80;;;13.80;57.20;;;;;;5054008;28;20492;-58
2021/03/18 06:33:19;;;;;;;3.07;2.77;;;13.90;57.20;;;;;;5053961;28;20538;-58
2021/03/18 06:35:46;;;;;;;5.73;3.10;;;13.90;57.00;;;;;;5053447;28;20458;-59
2021/03/18 06:38:14;;;;;;;3.03;2.70;;;13.90;57.20;;;;;;5054575;28;20529;-58
2021/03/18 06:40:41;;;;;;;3.93;3.00;;;13.80;57.10;;;;;;5053840;28;20461;-58
2021/03/18 06:43:09;;;;;;;2.73;2.53;;;13.90;57.10;;;;;;5053292;28;20470;-58
2021/03/18 06:45:37;;;;;;;4.97;2.60;;;13.90;57.20;;;;;;5053205;28;20466;-61
2021/03/18 06:48:05;;;;;;;3.80;2.83;;;13.90;57.10;;;;;;5071944;28;20481;-61
2021/03/18 06:50:34;;;;;;;3.40;2.60;;;13.90;57.00;;;;;;5073521;28;20461;-61
2021/03/18 06:53:00;;;;;;;2.83;2.60;;;13.90;57.10;;;;;;5073454;28;20532;-61
2021/03/18 06:55:30;;;;;;;3.93;2.47;;;14.00;57.10;;;;;;5067259;28;20537;-62
2021/03/18 06:58:16;;;;;;;2.67;2.43;;;14.00;57.00;;;;;;5053550;28;20533;-61
2021/03/18 07:00:43;;;;;;;2.37;2.20;;;14.00;57.00;;;;;;5053493;28;20482;-61
2021/03/18 07:03:10;;;;;;;5.17;2.73;;;14.00;56.80;;;;;;5053401;28;20442;-61
2021/03/18 07:05:39;;;;;;;3.87;2.50;;;14.10;56.80;;;;;;5086458;28;20498;-61
2021/03/18 07:08:06;;;;;;;2.70;2.50;;;14.10;56.80;;;;;;5093462;28;20467;-61
2021/03/18 07:10:35;;;;;;;3.63;2.40;;;14.10;56.70;;;;;;5072654;28;20450;-61
2021/03/18 07:13:18;;;;;;;4.20;3.13;;;14.10;56.80;;;;;;5074605;28;20520;-61
2021/03/18 07:15:45;;;;;;;3.23;2.80;;;14.20;56.70;;;;;;5055940;28;20446;-62
2021/03/18 07:18:12;;;;;;;3.20;2.90;;;14.20;56.60;;;;;;5053649;28;20470;-62
2021/03/18 07:20:46;;;;;;;4.40;2.60;;;14.20;56.50;;;;;;5053793;28;20461;-61
2021/03/18 07:23:16;;;;;;;3.30;3.00;;;14.20;56.60;;;;;;5069723;28;20485;-61
2021/03/18 07:25:47;;;;;;;3.13;2.70;;;14.40;56.40;;;;;;5073024;28;20492;-61
2021/03/18 07:28:14;;;;;;;2.57;2.37;;;14.50;56.20;;;;;;5073167;28;20446;-61
2021/03/18 07:30:42;;;;;;;2.47;2.27;;;14.50;56.20;;;;;;5077890;28;20437;-62
2021/03/18 07:33:09;;;;;;;2.77;2.57;;;14.60;56.00;;;;;;5093316;28;20441;-62
2021/03/18 07:35:36;;;;;;;2.73;2.50;;;14.70;55.80;;;;;;5092944;28;20437;-62
2021/03/18 07:38:03;;;;;;;2.70;2.00;;;14.80;55.60;;;;;;5093593;28;20519;-61
2021/03/18 07:40:30;;;;;;;2.60;2.40;;;14.80;55.70;;;;;;5092987;28;20440;-61
2021/03/18 07:42:59;;;;;;;2.90;2.70;;;14.90;55.70;;;;;;5093189;28;20473;-62
2021/03/18 07:45:26;;;;;;;2.80;2.60;;;14.90;55.50;;;;;;5092494;28;20480;-61
2021/03/18 07:47:54;;;;;;;2.40;2.20;;;15.00;55.70;;;;;;5095899;28;20535;-61
2021/03/18 07:50:25;;;;;;;3.70;2.70;;;15.00;55.50;;;;;;5057092;28;20434;-61
2021/03/18 07:52:52;;;;;;;2.50;2.30;;;15.20;55.60;;;;;;5057090;28;20529;-61
2021/03/18 07:55:19;;;;;;;3.20;2.50;;;15.30;55.20;;;;;;5056257;28;20466;-58
2021/03/18 07:57:49;;;;;;;2.80;2.50;;;15.40;55.10;;;;;;5057265;28;20510;-57
2021/03/18 08:00:18;;;;;;;3.83;2.50;;;15.30;55.40;;;;;;5057327;28;20496;-57
2021/03/18 08:02:45;;;;;;;2.50;2.23;;;15.30;55.50;;;;;;5056889;28;20438;-58
2021/03/18 08:05:13;;;;;;;2.90;2.70;;;15.30;55.50;;;;;;5055462;28;20563;-56
2021/03/18 08:07:43;;;;;;;2.60;2.00;;;15.30;55.40;;;;;;5057447;28;20537;-57
2021/03/18 08:10:12;;;;;;;2.43;2.17;;;15.20;55.50;;;;;;5056848;28;20469;-57
2021/03/18 08:12:50;;;;;;;1.90;1.80;;;15.10;55.80;;;;;;5056245;28;20481;-57
2021/03/18 08:15:31;;;;;;;2.60;2.40;;;15.30;55.60;;;;;;5056543;28;20434;-57
2021/03/18 08:18:37;;;;;;;2.67;2.37;;;15.40;55.60;;;;;;5056683;28;20472;-57
2021/03/18 08:21:07;;;;;;;2.40;2.17;;;15.30;55.50;;;;;;5050568;28;20450;-58
2021/03/18 08:23:50;;;;;;;2.00;1.90;;;15.40;55.40;;;;;;5056789;28;20442;-58
2021/03/18 08:26:45;;;;;;;2.40;2.00;;;15.40;55.50;;;;;;5056071;28;20446;-58
2021/03/18 08:29:14;;;;;;;2.60;2.20;;;15.50;55.40;;;;;;5055289;28;20434;-58
2021/03/18 08:32:01;;;;;;;1.73;1.63;;;15.60;55.40;;;;;;5069274;28;20498;-57
2021/03/18 08:34:50;;;;;;;2.50;2.10;;;15.60;55.50;;;;;;5074082;28;20519;-56
2021/03/18 08:37:40;;;;;;;1.80;1.70;;;15.80;55.30;;;;;;5054971;28;20459;-58
2021/03/18 08:40:10;;;;;;;2.80;2.07;;;15.70;55.40;;;;;;5056033;28;20438;-58
2021/03/18 08:42:39;;;;;;;1.70;1.60;;;15.70;55.40;;;;;;5083904;28;20437;-57
2021/03/18 08:45:11;;;;;;;2.03;1.83;;;15.80;55.50;;;;;;5095471;28;20472;-57
2021/03/18 08:47:43;;;;;;;1.93;1.80;;;15.90;55.30;;;;;;5094644;28;20444;-58
2021/03/18 08:50:12;;;;;;;2.13;1.93;;;16.10;55.00;;;;;;5078004;28;20428;-57
2021/03/18 08:52:41;;;;;;;1.90;1.80;;;16.40;54.70;;;;;;5096277;28;20498;-58
2021/03/18 08:55:09;;;;;;;1.90;1.80;;;16.60;54.60;;;;;;5078413;28;20458;-58
2021/03/18 08:57:36;;;;;;;2.33;2.13;;;16.70;54.30;;;;;;5075309;28;20469;-58
2021/03/18 09:00:14;;;;;;;1.70;1.60;;;16.60;54.70;;;;;;5088345;28;20527;-59
2021/03/18 09:02:46;;;;;;;2.73;1.90;;;16.60;54.70;;;;;;5096350;28;20436;-57
2021/03/18 09:05:15;;;;;;;2.67;2.27;;;16.80;54.40;;;;;;5095476;28;20563;-58
2021/03/18 09:07:47;;;;;;;2.53;2.20;;;16.90;54.40;;;;;;5095605;28;20433;-58
2021/03/18 09:10:15;;;;;;;1.67;1.50;;;17.30;54.20;;;;;;5095668;28;20494;-58
2021/03/18 09:12:47;;;;;;;2.40;2.20;;;17.30;54.20;;;;;;5095518;28;20437;-58
2021/03/18 09:15:25;;;;;;;2.80;2.17;;;17.40;54.40;;;;;;5095429;28;20445;-58
2021/03/18 09:17:54;;;;;;;1.73;1.60;;;17.40;53.80;;;;;;5095118;28;20462;-58
2021/03/18 09:20:26;;;;;;;1.80;1.70;;;17.30;54.10;;;;;;5095835;28;20444;-58
2021/03/18 09:22:55;;;;;;;2.10;2.00;;;17.10;54.50;;;;;;5095981;28;20429;-58
2021/03/18 09:25:27;;;;;;;1.90;1.80;;;17.10;54.40;;;;;;5095028;28;20563;-58
2021/03/18 09:27:54;;;;;;;1.90;1.80;;;17.20;54.20;;;;;;5095276;28;20525;-58
2021/03/18 09:30:27;;;;;;;1.97;1.87;;;17.40;53.90;;;;;;5095139;28;20448;-58
2021/03/18 09:32:55;;;;;;;2.00;1.90;;;17.50;53.80;;;;;;5095528;28;20560;-58
2021/03/18 09:35:23;;;;;;;2.50;2.30;;;17.40;53.90;;;;;;5094347;28;20444;-58
2021/03/18 09:37:56;;;;;;;2.10;1.90;;;17.30;54.20;;;;;;5095396;28;20461;-58
2021/03/18 09:40:33;;;;;;;1.77;1.67;;;17.30;53.90;;;;;;5095471;28;20436;-59
2021/03/18 09:43:00;;;;;;;2.03;1.90;;;17.40;53.80;;;;;;5093868;28;20432;-57
2021/03/18 09:45:28;;;;;;;2.13;1.83;;;17.30;53.90;;;;;;5074439;28;20534;-58
2021/03/18 09:47:55;;;;;;;4.00;1.93;;;17.10;54.10;;;;;;5075113;28;20485;-58
2021/03/18 09:50:24;;;;;;;2.00;1.90;;;17.00;54.50;;;;;;5074742;28;20464;-58
2021/03/18 09:52:51;;;;;;;2.00;1.90;;;16.90;54.40;;;;;;5065943;28;20477;-58
2021/03/18 09:55:19;;;;;;;1.93;1.83;;;16.80;54.70;;;;;;5054667;28;20435;-57
2021/03/18 09:57:45;;;;;;;3.00;2.13;;;16.70;54.80;;;;;;5054690;28;20466;-57
2021/03/18 10:00:14;;;;;;;3.80;2.00;;;16.70;54.80;;;;;;5054828;28;20442;-58
2021/03/18 10:02:42;;;;;;;3.17;1.90;;;16.70;54.90;;;;;;5055052;28;20439;-57
2021/03/18 10:05:11;;;;;;;3.00;2.00;;;16.70;54.90;;;;;;5061689;28;20568;-58
2021/03/18 10:07:38;;;;;;;1.80;1.70;;;16.70;54.60;;;;;;5074400;28;20498;-58
2021/03/18 10:10:06;;;;;;;1.93;1.70;;;16.60;54.70;;;;;;5071839;28;20472;-59
2021/03/18 10:12:33;;;;;;;3.40;1.80;;;16.60;54.60;;;;;;5095004;28;20503;-59
2021/03/18 10:15:01;;;;;;;2.90;2.00;;;16.50;54.70;;;;;;5094500;28;20482;-60
2021/03/18 10:17:31;;;;;;;2.80;2.07;;;16.50;54.70;;;;;;5075449;28;20441;-59
2021/03/18 10:19:59;;;;;;;3.43;1.93;;;16.40;54.80;;;;;;5076265;28;20448;-59
2021/03/18 10:22:31;;;;;;;2.63;1.87;;;16.50;54.30;;;;;;5074587;28;20429;-59
2021/03/18 10:25:03;;;;;;;2.03;1.93;;;16.50;54.20;;;;;;5074304;28;20489;-59
2021/03/18 10:27:34;;;;;;;1.73;1.63;;;16.60;53.90;;;;;;5077145;28;20437;-59
2021/03/18 10:30:10;;;;;;;1.60;1.53;;;16.60;54.10;;;;;;5094750;28;20472;-59
2021/03/18 10:32:37;;;;;;;2.37;1.60;;;16.70;53.90;;;;;;5095115;28;20498;-59
2021/03/18 10:35:05;;;;;;;1.90;1.80;;;16.70;53.60;;;;;;5090505;28;20426;-59
2021/03/18 10:37:37;;;;;;;2.00;1.90;;;16.80;53.60;;;;;;5079157;28;20472;-58
2021/03/18 10:40:17;;;;;;;2.03;1.80;;;16.80;53.20;;;;;;5066058;28;20462;-59
2021/03/18 10:42:46;;;;;;;1.97;1.80;;;16.80;53.10;;;;;;5073924;28;20461;-59
2021/03/18 10:45:24;;;;;;;2.50;2.30;;;16.80;53.10;;;;;;5074695;28;20559;-59
2021/03/18 10:47:52;;;;;;;2.53;2.30;;;16.90;53.00;;;;;;5071738;28;20487;-59
2021/03/18 10:50:22;;;;;;;8.53;2.27;;;17.00;52.70;;;;;;5073937;28;20430;-59
2021/03/18 10:52:54;;;;;;;4.60;2.30;;;16.90;52.80;;;;;;5071367;28;20513;-59
2021/03/18 10:55:24;;;;;;;2.40;1.93;;;16.90;52.70;;;;;;5086911;28;20491;-59
2021/03/18 10:57:56;;;;;;;4.53;2.13;;;16.80;52.80;;;;;;5089077;28;20430;-59
2021/03/18 11:00:23;;;;;;;7.20;2.10;;;16.90;52.70;;;;;;5073929;28;20442;-59
2021/03/18 11:03:01;;;;;;;2.17;1.97;;;16.90;52.70;;;;;;5075624;28;20433;-58
2021/03/18 11:05:30;;;;;;;2.53;1.80;;;17.10;52.40;;;;;;5071579;28;20469;-59
2021/03/18 11:07:57;;;;;;;3.10;1.97;;;17.10;52.30;;;;;;5074008;28;20469;-59
2021/03/18 11:10:29;;;;;;;1.70;1.60;;;17.20;52.10;;;;;;5073968;28;20445;-59
2021/03/18 11:12:57;;;;;;;1.80;1.70;;;17.40;51.90;;;;;;5086831;28;20437;-58
2021/03/18 11:15:24;;;;;;;1.63;1.53;;;17.60;51.60;;;;;;5093952;28;20457;-59
2021/03/18 11:18:05;;;;;;;1.93;1.80;;;18.10;50.70;;;;;;5084530;28;20507;-60
2021/03/18 11:20:36;;;;;;;1.97;1.80;;;19.20;49.20;;;;;;5075179;28;20452;-57
2021/03/18 11:23:04;;;;;;;1.97;1.80;;;20.00;47.20;;;;;;5062885;28;20534;-60
2021/03/18 11:25:31;;;;;;;1.70;1.60;;;19.50;47.70;;;;;;5053363;28;20478;-59
2021/03/18 11:27:58;;;;;;;3.70;1.83;;;18.80;48.80;;;;;;5065893;28;20466;-59
2021/03/18 11:30:30;;;;;;;1.90;1.80;;;18.40;49.70;;;;;;5083741;28;20453;-59
2021/03/18 11:33:12;;;;;;;2.90;1.83;;;18.10;50.20;;;;;;5093985;28;20431;-59
2021/03/18 11:35:39;;;;;;;5.97;2.10;;;17.80;50.90;;;;;;5093603;28;20447;-59
2021/03/18 11:38:08;;;;;;;2.53;1.73;;;17.70;50.90;;;;;;5093470;28;20539;-59
2021/03/18 11:40:36;;;;;;;4.23;1.80;;;17.60;51.30;;;;;;5094342;28;20483;-59
2021/03/18 11:43:04;;;;;;;3.30;2.00;;;17.50;51.40;;;;;;5093949;28;20436;-59
2021/03/18 11:45:31;;;;;;;1.93;1.50;;;17.50;51.60;;;;;;5093495;28;20464;-59
2021/03/18 11:47:59;;;;;;;7.80;1.83;;;17.50;51.40;;;;;;5074614;28;20455;-59
2021/03/18 11:50:26;;;;;;;2.93;1.73;;;17.40;51.60;;;;;;5053769;28;20551;-59
2021/03/18 11:52:53;;;;;;;6.70;2.10;;;17.30;51.80;;;;;;5053723;28;20474;-60
2021/03/18 11:55:20;;;;;;;6.40;2.20;;;17.30;51.70;;;;;;5053171;28;20431;-58
2021/03/18 11:57:53;;;;;;;1.97;1.87;;;17.30;51.80;;;;;;5053971;28;20535;-54
2021/03/18 12:00:21;;;;;;;8.33;1.80;;;17.20;51.90;;;;;;5053422;28;20454;-51
2021/03/18 12:02:48;;;;;;;3.80;1.63;;;17.20;52.00;;;;;;5053235;28;20438;-58
2021/03/18 12:05:35;;;;;;;4.37;1.60;;;17.20;51.90;;;;;;5070717;28;20480;-57
2021/03/18 12:08:02;;;;;;;8.20;2.00;;;17.20;52.00;;;;;;5093981;28;20453;-59
2021/03/18 12:10:30;;;;;;;4.87;1.90;;;17.10;52.00;;;;;;5093845;28;20443;-58
2021/03/18 12:12:57;;;;;;;7.33;1.80;;;17.10;52.00;;;;;;5093343;28;20433;-56
2021/03/18 12:15:24;;;;;;;4.50;2.60;;;17.20;52.10;;;;;;5076384;28;20471;-59
2021/03/18 12:17:51;;;;;;;6.10;2.10;;;17.10;52.30;;;;;;5073310;28;20456;-55
2021/03/18 12:20:20;;;;;;;8.47;1.80;;;17.20;52.20;;;;;;5073453;28;20487;-59
2021/03/18 12:22:47;;;;;;;3.17;1.90;;;17.40;52.00;;;;;;5077228;28;20501;-55
2021/03/18 12:25:16;;;;;;;9.67;2.07;;;17.60;52.10;;;;;;5093168;28;20547;-61
2021/03/18 12:27:44;;;;;;;3.87;2.00;;;17.90;51.10;;;;;;5077507;28;20442;-61
2021/03/18 12:30:12;;;;;;;7.60;1.90;;;18.60;49.90;;;;;;5073398;28;20469;-55
2021/03/18 12:32:39;;;;;;;3.33;1.93;;;19.10;48.80;;;;;;5062363;28;20529;-57
2021/03/18 12:35:07;;;;;;;6.53;2.10;;;19.20;48.40;;;;;;5056258;28;20450;-54
2021/03/18 12:37:34;;;;;;;11.30;2.50;;;19.20;48.60;;;;;;5056900;28;20441;-56
2021/03/18 12:40:01;;;;;;;3.60;2.00;;;19.10;48.80;;;;;;5057626;28;20531;-61
2021/03/18 12:42:28;;;;;;;9.20;2.17;;;18.80;49.30;;;;;;5096968;28;20496;-55
2021/03/18 12:44:56;;;;;;;9.80;2.00;;;18.50;49.90;;;;;;5096336;28;20509;-56
2021/03/18 12:47:23;;;;;;;8.77;2.30;;;18.40;50.10;;;;;;5096939;28;20440;-60
2021/03/18 12:49:50;;;;;;;4.73;1.97;;;18.40;50.40;;;;;;5096201;28;20433;-58
2021/03/18 12:52:17;;;;;;;8.90;2.10;;;18.30;50.60;;;;;;5096638;28;20490;-58
2021/03/18 12:54:44;;;;;;;16.67;2.47;;;18.40;50.60;;;;;;5096208;28;20516;-58
2021/03/18 12:57:11;;;;;;;4.67;1.80;;;18.30;50.60;;;;;;5096798;28;20437;-58
2021/03/18 12:59:37;;;;;;;4.77;2.23;;;18.20;50.60;;;;;;5096042;28;20519;-58